Beaverton, OR (97006)

11:31 PM PST on December 05, 2016 (GMT -0800)
Heritage Village | | Change Station

Elev 171 ft 45.52 °N, 122.86 °W | Updated 29 seconds ago

Overcast
Overcast
34.0 °F
Feels Like 34 °F
N
0.0
Wind Variable Wind from West

Today
High -- | Low -- °F
--% Chance of Precip.
Yesterday
High -- | Low -- °F
Precip. -- in
Pressure 30.02 in
Visibility 7.0 miles
Clouds Overcast 900 ft
Windchill 34 °F
Dew Point 33 °F
Humidity 97%
Rainfall 0.36 in
Snow Depth Not available.
7:36 AM 4:28 PM
Waxing Crescent, 39% visible
METAR KHIO 060653Z AUTO 00000KT 7SM OVC009 02/01 A3001 RMK AO2 CIG 006V010 SLP164 T00170006
Pressure 30.02 in
Visibility 7.0 miles
Clouds Overcast 900 ft
Windchill 34 °F
Dew Point 33 °F
Humidity 97%
Rainfall 0.36 in
Snow Depth Not available.
7:36 AM 4:28 PM
Waxing Crescent, 39% visible
METAR KHIO 060653Z AUTO 00000KT 7SM OVC009 02/01 A3001 RMK AO2 CIG 006V010 SLP164 T00170006

10-Day Weather Forecast

Almanac

Astronomy

Dec. 05, 2016 Rise Set
Actual Time
Civil Twilight
Nautical Twilight
Astronomical Twilight
Moon
Length of Visible Light
Length of Day
Tomorrow will be .
, % of the Moon is Illuminated

Today's Extremes

State Highs State Lows

Community

WunderPhotos

Upload Photos

1,955,930 photos uploaded!

WunderBlog® & News

Nearby

Air Quality

  Air Quality AQ Index Pollutant
Not available.

Snow Depth

Station Depth Elevation

Earthquake Activity

City Distance Mag. Time & Date
Minimum magnitude displayed is 2.5.

Coastal Water Temperatures

Place Temperature

Stations

Nearby Weather Stations

Station Location Temp. Windchill Dew Point Humidity Wind Precip. Elev Updated Type
                   

Watches & Warnings

Winter Weather Advisory
Issued: 9:01 PM PST Dec. 5, 2016 – National Weather Service

... Winter Weather Advisory now in effect until 3 am PST Tuesday
above 700 feet for the central Willamette Valley and the Portland
and Vancouver Metro area...

The Winter Weather Advisory for snow is now in effect until 3 am
PST Tuesday for elevations above 700 feet.

* Timing... snow showers at times through late tonight.

* Accumulation... 1 to 2 inches above 700 feet. Any
accumulations below 700 feet will be light but a brief
dusting could coat surfaces overnight.

* Impacts... travel may become difficult as roads become snow
covered.

Precautionary/preparedness actions...

A Winter Weather Advisory for snow means that periods of snow
will cause primarily travel difficulties. Be prepared for snow
covered roads and limited visibilities... and use caution while
driving.